createdAt,value
2024-04-06T05:00:44.569Z,168.00
2024-04-06T05:01:44.527Z,184.00
2024-04-06T05:02:44.491Z,204.00
2024-04-06T05:03:44.481Z,224.00
2024-04-06T05:04:44.474Z,244.00
2024-04-06T05:05:44.491Z,264.00
2024-04-06T05:06:44.455Z,288.00
2024-04-06T05:07:44.453Z,308.00
2024-04-06T05:08:44.427Z,336.00
2024-04-06T05:09:44.420Z,360.00
2024-04-06T05:10:44.403Z,388.00
2024-04-06T05:11:49.437Z,412.00
2024-04-06T05:12:44.382Z,440.00
2024-04-06T05:13:44.377Z,472.00
2024-04-06T05:14:44.381Z,500.00
2024-04-06T05:15:44.348Z,528.00
2024-04-06T05:16:44.347Z,556.00
2024-04-06T05:17:44.350Z,588.00
2024-04-06T05:18:44.327Z,616.00
2024-04-06T05:19:44.318Z,648.00
2024-04-06T05:20:44.305Z,676.00
2024-04-06T05:21:44.294Z,704.00
2024-04-06T05:22:49.290Z,732.00
2024-04-06T05:23:44.263Z,764.00
2024-04-06T05:24:44.262Z,800.00
2024-04-06T05:25:44.239Z,832.00
2024-04-06T05:26:44.233Z,868.00
2024-04-06T05:27:44.216Z,900.00
2024-04-06T05:28:44.204Z,936.00
2024-04-06T05:29:44.195Z,980.00
2024-04-06T05:30:44.198Z,1024.00
2024-04-06T05:31:44.199Z,1080.00
2024-04-06T05:32:44.196Z,1124.00
2024-04-06T05:33:49.171Z,1168.00
2024-04-06T05:34:44.151Z,1192.00
2024-04-06T05:35:44.123Z,1192.00
2024-04-06T05:36:44.132Z,1220.00
2024-04-06T05:37:44.102Z,1268.00
2024-04-06T05:38:44.128Z,1324.00
2024-04-06T05:39:44.084Z,1376.00
2024-04-06T05:40:44.066Z,1432.00
2024-04-06T05:41:44.079Z,1508.00
2024-04-06T05:42:44.054Z,1612.00
2024-04-06T05:43:44.036Z,1760.00
2024-04-06T05:44:49.053Z,2052.00
2024-04-06T05:45:44.020Z,2424.00
2024-04-06T05:46:43.998Z,2408.00
2024-04-06T05:47:44.000Z,2608.00
2024-04-06T05:48:43.984Z,2708.00
2024-04-06T05:49:43.967Z,2852.00
2024-04-06T05:50:44.000Z,2960.00
2024-04-06T05:51:43.950Z,2996.00
2024-04-06T05:52:43.928Z,2980.00
2024-04-06T05:53:43.978Z,2796.00
2024-04-06T05:54:43.928Z,2564.00
2024-04-06T05:55:48.934Z,2228.00
2024-04-06T05:56:43.884Z,1944.00
2024-04-06T05:57:43.875Z,1936.00
2024-04-06T05:58:43.896Z,1836.00
2024-04-06T05:59:43.862Z,1772.00
2024-04-06T06:00:43.837Z,1740.00
2024-04-06T06:01:43.932Z,1668.00
2024-04-06T06:02:43.857Z,1664.00
2024-04-06T06:03:43.872Z,1672.00
2024-04-06T06:04:44.006Z,1692.00
2024-04-06T06:05:43.797Z,1720.00
2024-04-06T06:06:48.811Z,1732.00
2024-04-06T06:07:43.801Z,1772.00
2024-04-06T06:08:43.788Z,1808.00
2024-04-06T06:09:43.785Z,1888.00
2024-04-06T06:10:43.754Z,1964.00
2024-04-06T06:11:43.731Z,2044.00
2024-04-06T06:12:43.718Z,2096.00
2024-04-06T06:13:43.696Z,1988.00
2024-04-06T06:14:43.698Z,1956.00
2024-04-06T06:15:43.677Z,1912.00
2024-04-06T06:16:43.684Z,1884.00
2024-04-06T06:17:48.678Z,1884.00
2024-04-06T06:18:43.639Z,1920.00
2024-04-06T06:19:43.637Z,1876.00
2024-04-06T06:20:43.626Z,1864.00
2024-04-06T06:21:45.764Z,1860.00
2024-04-06T06:22:43.599Z,1816.00
2024-04-06T06:23:43.602Z,1840.00
2024-04-06T06:24:43.571Z,1892.00
2024-04-06T06:25:43.560Z,1984.00
2024-04-06T06:26:43.563Z,2004.00
2024-04-06T06:27:46.232Z,2096.00
2024-04-06T06:28:48.565Z,2248.00
2024-04-06T06:29:43.530Z,2368.00
2024-04-06T06:30:43.519Z,2312.00
2024-04-06T06:31:43.524Z,2316.00
2024-04-06T06:32:43.494Z,2424.00
2024-04-06T06:33:43.472Z,2592.00
2024-04-06T06:34:43.478Z,2600.00
2024-04-06T06:40:43.451Z,2924.00
2024-04-06T06:41:43.632Z,3016.00
2024-04-06T06:42:43.383Z,3116.00
2024-04-06T06:43:43.364Z,3164.00
2024-04-06T06:44:43.356Z,3284.00
2024-04-06T06:45:43.355Z,3428.00
2024-04-06T06:46:43.357Z,3388.00
2024-04-06T06:47:45.277Z,3604.00
2024-04-06T06:48:43.322Z,3076.00
2024-04-06T06:49:43.294Z,2976.00
2024-04-06T06:50:48.302Z,3000.00
2024-04-06T06:51:43.271Z,4068.00
2024-04-06T06:52:43.290Z,4696.00
2024-04-06T06:53:43.264Z,5200.00
2024-04-06T06:54:43.233Z,6064.00
2024-04-06T06:55:43.239Z,6252.00
2024-04-06T06:56:43.241Z,6840.00
2024-04-06T06:57:43.208Z,7332.00
2024-04-06T06:58:43.212Z,8052.00
2024-04-06T07:00:43.214Z,6648.00
2024-04-06T07:01:48.194Z,6152.00
2024-04-06T07:02:43.160Z,6584.00
2024-04-06T07:03:43.139Z,6416.00
2024-04-06T07:04:43.146Z,6488.00
2024-04-06T07:05:43.117Z,6596.00
2024-04-06T07:07:43.093Z,6424.00
2024-04-06T07:09:02.206Z,5584.00
2024-04-06T07:09:44.080Z,6356.00
2024-04-06T07:10:43.080Z,6360.00
2024-04-06T07:11:43.049Z,6248.00
2024-04-06T07:12:48.058Z,6096.00
2024-04-06T07:13:43.045Z,6404.00
2024-04-06T07:14:43.018Z,6516.00
2024-04-06T07:15:43.019Z,6292.00
2024-04-06T07:16:42.999Z,6476.00
2024-04-06T07:17:42.986Z,7448.00
2024-04-06T07:18:42.975Z,6852.00
2024-04-06T07:19:42.958Z,7124.00
2024-04-06T07:20:42.945Z,7664.00
2024-04-06T07:21:42.960Z,8260.00
2024-04-06T07:22:42.929Z,7388.00
2024-04-06T07:23:47.962Z,7036.00
2024-04-06T07:24:42.906Z,7160.00
2024-04-06T07:25:45.481Z,7356.00
2024-04-06T07:26:42.897Z,7364.00
2024-04-06T07:27:42.872Z,7112.00
2024-04-06T07:28:42.858Z,5556.00
2024-04-06T07:29:42.853Z,4848.00
2024-04-06T07:30:42.841Z,5208.00
2024-04-06T07:31:42.825Z,4292.00
2024-04-06T07:32:42.840Z,4340.00
2024-04-06T07:33:42.803Z,4392.00
2024-04-06T07:34:47.811Z,3796.00
2024-04-06T07:35:42.784Z,3696.00
2024-04-06T07:36:42.776Z,3700.00
2024-04-06T07:37:42.758Z,3376.00
2024-04-06T07:39:42.746Z,3684.00
2024-04-06T07:40:42.728Z,3704.00
2024-04-06T07:41:42.716Z,4136.00
2024-04-06T07:42:42.959Z,4860.00
2024-04-06T07:43:42.693Z,4772.00
2024-04-06T07:44:42.689Z,4664.00
2024-04-06T07:45:47.699Z,4604.00
2024-04-06T07:46:42.693Z,4420.00
2024-04-06T07:47:42.648Z,4464.00
2024-04-06T07:48:42.634Z,4692.00
2024-04-06T07:49:42.669Z,5088.00
2024-04-06T07:50:42.621Z,7160.00
2024-04-06T07:51:42.611Z,8188.00
2024-04-06T07:52:42.594Z,9444.00
2024-04-06T07:53:42.595Z,8140.00
2024-04-06T07:54:42.569Z,7824.00
2024-04-06T07:55:42.577Z,8116.00
2024-04-06T07:56:47.586Z,8208.00
2024-04-06T07:57:42.547Z,8820.00
2024-04-06T07:58:42.521Z,9572.00
2024-04-06T07:59:42.512Z,10940.00
2024-04-06T08:00:42.525Z,12060.00
2024-04-06T08:01:42.492Z,11760.00
2024-04-06T08:02:42.478Z,9384.00
2024-04-06T08:03:42.492Z,9560.00
2024-04-06T08:04:42.458Z,10128.00
2024-04-06T08:05:42.447Z,11268.00
2024-04-06T08:06:42.445Z,12460.00
2024-04-06T08:07:47.447Z,13476.00
2024-04-06T08:08:42.410Z,14004.00
2024-04-06T08:09:42.415Z,14016.00
2024-04-06T08:10:42.424Z,13380.00
2024-04-06T08:11:42.411Z,12224.00
2024-04-06T08:12:42.377Z,9708.00
2024-04-06T08:13:42.358Z,11240.00
2024-04-06T08:14:42.345Z,10452.00
2024-04-06T08:15:42.344Z,9592.00
2024-04-06T08:16:42.335Z,12464.00
2024-04-06T08:17:42.325Z,12956.00
2024-04-06T08:18:47.326Z,13632.00
2024-04-06T08:19:42.287Z,14016.00
2024-04-06T08:20:42.290Z,15104.00
2024-04-06T08:21:42.283Z,15520.00
2024-04-06T08:22:42.279Z,15232.00
2024-04-06T08:23:42.247Z,13316.00
2024-04-06T08:24:42.236Z,13332.00
2024-04-06T08:25:42.226Z,14056.00
2024-04-06T08:26:42.239Z,13920.00
2024-04-06T08:27:42.220Z,14184.00
2024-04-06T08:28:42.196Z,12072.00
2024-04-06T08:29:47.204Z,10744.00
2024-04-06T08:30:42.171Z,8300.00
2024-04-06T08:31:42.162Z,6472.00
2024-04-06T08:32:42.171Z,6232.00
2024-04-06T08:33:42.154Z,6976.00
2024-04-06T08:34:42.127Z,8964.00
2024-04-06T08:35:42.136Z,12048.00
2024-04-06T08:36:42.108Z,12444.00
2024-04-06T08:37:42.115Z,10824.00
2024-04-06T08:38:42.083Z,10048.00
2024-04-06T08:39:42.112Z,8276.00
2024-04-06T08:40:47.085Z,9684.00
2024-04-06T08:41:42.056Z,9524.00
2024-04-06T08:42:42.046Z,10548.00
2024-04-06T08:43:42.040Z,8848.00
2024-04-06T08:44:42.023Z,8572.00
2024-04-06T08:45:42.031Z,7252.00
2024-04-06T08:46:42.001Z,8556.00
2024-04-06T08:47:41.995Z,8032.00
2024-04-06T08:48:42.005Z,7612.00
2024-04-06T08:49:41.977Z,6804.00
2024-04-06T08:50:41.974Z,6352.00
2024-04-06T08:51:46.973Z,6524.00
2024-04-06T08:52:41.934Z,7752.00
2024-04-06T08:53:41.919Z,8864.00
2024-04-06T08:54:41.929Z,9764.00
2024-04-06T08:55:41.908Z,7944.00
2024-04-06T08:56:41.891Z,8692.00
2024-04-06T08:57:41.891Z,8792.00
2024-04-06T08:58:41.866Z,8876.00
2024-04-06T08:59:41.883Z,8260.00
2024-04-06T09:00:41.845Z,8184.00
2024-04-06T09:01:41.831Z,7380.00
2024-04-06T09:02:46.846Z,8912.00
2024-04-06T09:03:41.815Z,10744.00
2024-04-06T09:04:41.815Z,10724.00
2024-04-06T09:05:41.795Z,11300.00
2024-04-06T09:06:41.783Z,8788.00
2024-04-06T09:07:41.766Z,7256.00
2024-04-06T09:08:41.758Z,6452.00
2024-04-06T09:09:41.754Z,7444.00
2024-04-06T09:10:41.748Z,4936.00
2024-04-06T09:11:41.727Z,4556.00
2024-04-06T09:12:41.714Z,4656.00
2024-04-06T09:13:46.727Z,5952.00
2024-04-06T09:14:41.715Z,5324.00
2024-04-06T09:15:41.736Z,6668.00
2024-04-06T09:16:41.675Z,12428.00
2024-04-06T09:17:41.657Z,13840.00
2024-04-06T09:18:41.661Z,14052.00
2024-04-06T09:19:41.645Z,13120.00
2024-04-06T09:20:41.628Z,12164.00
2024-04-06T09:21:41.635Z,10380.00
2024-04-06T09:22:41.607Z,10312.00
2024-04-06T09:23:41.599Z,18176.00
2024-04-06T09:24:41.589Z,18560.00
2024-04-06T09:25:41.583Z,19200.00
2024-04-06T09:26:46.581Z,20672.00
2024-04-06T09:27:41.615Z,24096.00
2024-04-06T09:28:41.564Z,30624.00
2024-04-06T09:29:41.530Z,30176.00
2024-04-06T09:30:41.520Z,27744.00
2024-04-06T09:31:41.529Z,32544.00
2024-04-06T09:32:41.499Z,22208.00
2024-04-06T09:33:41.506Z,17536.00
2024-04-06T09:34:41.478Z,47872.00
2024-04-06T09:35:41.460Z,46144.00
2024-04-06T09:36:41.456Z,39776.00
2024-04-06T09:37:41.469Z,33408.00
2024-04-06T09:38:41.432Z,40288.00
2024-04-06T09:39:46.448Z,32032.00
2024-04-06T09:40:41.432Z,35968.00
2024-04-06T09:41:41.420Z,57664.00
2024-04-06T09:42:41.387Z,60928.00
2024-04-06T09:43:41.419Z,60352.00
2024-04-06T09:44:41.376Z,52992.00
2024-04-06T09:45:41.367Z,51424.00
2024-04-06T09:46:41.346Z,26400.00
2024-04-06T09:47:41.373Z,40544.00
2024-04-06T09:48:41.326Z,57408.00
2024-04-06T09:49:41.311Z,59040.00
2024-04-06T09:50:41.895Z,54752.00
2024-04-06T09:51:41.351Z,42752.00
2024-04-06T09:52:46.313Z,53024.00
2024-04-06T09:53:41.294Z,34368.00
2024-04-06T09:54:41.286Z,37056.00
2024-04-06T09:55:41.246Z,41184.00
2024-04-06T09:56:41.247Z,36608.00
2024-04-06T09:57:41.223Z,40736.00
2024-04-06T09:58:41.248Z,16096.00
2024-04-06T09:59:41.210Z,14156.00
2024-04-06T10:00:41.194Z,12260.00
2024-04-06T10:01:41.185Z,20256.00
2024-04-06T10:02:41.173Z,11752.00
2024-04-06T10:03:41.175Z,15360.00
2024-04-06T10:04:41.176Z,14528.00
2024-04-06T10:05:46.184Z,34272.00
2024-04-06T10:06:41.164Z,33216.00
2024-04-06T10:07:41.144Z,31904.00
2024-04-06T10:08:41.109Z,19424.00
2024-04-06T10:09:41.104Z,16576.00
2024-04-06T10:10:41.109Z,30368.00
2024-04-06T10:11:41.072Z,22560.00
2024-04-06T10:12:41.074Z,23584.00
2024-04-06T10:13:41.051Z,28928.00
2024-04-06T10:14:41.053Z,36576.00
2024-04-06T10:15:41.029Z,29600.00
2024-04-06T10:16:41.034Z,44192.00
2024-04-06T10:17:41.020Z,39040.00
2024-04-06T10:18:46.034Z,28672.00
2024-04-06T10:19:41.011Z,40640.00
2024-04-06T10:20:41.005Z,43008.00
2024-04-06T10:21:40.966Z,37088.00
2024-04-06T10:22:40.977Z,38816.00
2024-04-06T10:23:40.985Z,52736.00
2024-04-06T10:24:40.932Z,24224.00
2024-04-06T10:25:40.920Z,11552.00
2024-04-06T10:26:40.926Z,11344.00
2024-04-06T10:27:40.898Z,14156.00
2024-04-06T10:28:40.899Z,26176.00
2024-04-06T10:29:40.892Z,43776.00
2024-04-06T10:30:40.882Z,35424.00
2024-04-06T10:31:47.725Z,25824.00
2024-04-06T10:32:40.870Z,21696.00
2024-04-06T10:33:40.856Z,21920.00
2024-04-06T10:34:46.520Z,29632.00
2024-04-06T10:35:41.813Z,31040.00
2024-04-06T10:36:40.804Z,19488.00
2024-04-06T10:37:40.804Z,25792.00
2024-04-06T10:38:40.797Z,19648.00
2024-04-06T10:39:40.806Z,10656.00
2024-04-06T10:40:40.761Z,11368.00
2024-04-06T10:41:40.747Z,12572.00
2024-04-06T10:42:40.761Z,17632.00
2024-04-06T10:43:40.724Z,32928.00
2024-04-06T10:44:45.770Z,45632.00
2024-04-06T10:45:40.724Z,38496.00
2024-04-06T10:46:40.765Z,37696.00
2024-04-06T10:47:40.683Z,34208.00
2024-04-06T10:48:40.669Z,35104.00
2024-04-06T10:49:40.659Z,39904.00
2024-04-06T10:50:40.675Z,39392.00
2024-04-06T10:51:40.643Z,36672.00
2024-04-06T10:52:40.636Z,36480.00
2024-04-06T10:53:40.642Z,36928.00
2024-04-06T10:54:40.608Z,24416.00
2024-04-06T10:55:40.622Z,29600.00
2024-04-06T10:56:40.587Z,20832.00
2024-04-06T10:57:45.617Z,29344.00
2024-04-06T10:58:40.603Z,43840.00
2024-04-06T10:59:40.574Z,34592.00
2024-04-06T11:00:40.549Z,18944.00
2024-04-06T11:01:40.532Z,16448.00
2024-04-06T11:02:40.531Z,16000.00
2024-04-06T11:03:40.531Z,20864.00
2024-04-06T11:04:40.509Z,17888.00
2024-04-06T11:05:40.487Z,39776.00
2024-04-06T11:06:40.486Z,30080.00
2024-04-06T11:07:40.467Z,23456.00
2024-04-06T11:08:40.472Z,24512.00
2024-04-06T11:09:40.443Z,27168.00
2024-04-06T11:10:45.485Z,26144.00
2024-04-06T11:11:40.448Z,27264.00
2024-04-06T11:12:40.433Z,25696.00
2024-04-06T11:13:40.401Z,35584.00
2024-04-06T11:14:40.399Z,47360.00
2024-04-06T11:15:40.405Z,52480.00
2024-04-06T11:16:40.392Z,45760.00
2024-04-06T11:17:40.360Z,12384.00
2024-04-06T11:18:42.190Z,9748.00
2024-04-06T11:19:40.330Z,19072.00
2024-04-06T11:20:40.326Z,32032.00
2024-04-06T11:21:40.324Z,38400.00
2024-04-06T11:22:40.333Z,38080.00
2024-04-06T11:23:45.328Z,29888.00
2024-04-06T11:24:40.305Z,34784.00
2024-04-06T11:25:40.295Z,34848.00
2024-04-06T11:26:40.272Z,33440.00
2024-04-06T11:27:40.249Z,42080.00
2024-04-06T11:28:40.248Z,35648.00
2024-04-06T11:29:40.231Z,31168.00
2024-04-06T11:30:40.237Z,54080.00
2024-04-06T11:31:40.219Z,39488.00
2024-04-06T11:32:40.207Z,37952.00
2024-04-06T11:33:40.197Z,41568.00
2024-04-06T11:34:40.182Z,38720.00
2024-04-06T11:35:40.169Z,39488.00
2024-04-06T11:36:45.176Z,48416.00
2024-04-06T11:37:40.175Z,51968.00
2024-04-06T11:38:40.176Z,49408.00
2024-04-06T11:39:40.180Z,43904.00
2024-04-06T11:40:40.113Z,40896.00
2024-04-06T11:41:40.106Z,40256.00
2024-04-06T11:42:40.090Z,53600.00
2024-04-06T11:43:40.074Z,72032.00
2024-04-06T11:44:40.066Z,58752.00
2024-04-06T11:45:40.087Z,60288.00
2024-04-06T11:46:40.068Z,55456.00
2024-04-06T11:47:40.039Z,56352.00
2024-04-06T11:48:40.025Z,32992.00
2024-04-06T11:49:45.032Z,35520.00
2024-04-06T11:50:40.024Z,44064.00
2024-04-06T11:51:40.035Z,29920.00
2024-04-06T11:52:40.011Z,28064.00
2024-04-06T11:53:42.816Z,20768.00
2024-04-06T11:54:39.971Z,14724.00
2024-04-06T11:55:39.977Z,15612.00
2024-04-06T11:56:39.952Z,27520.00
2024-04-06T11:57:39.935Z,30624.00
2024-04-06T11:58:39.930Z,48512.00
2024-04-06T11:59:39.914Z,35136.00
2024-04-06T12:00:39.913Z,22816.00
2024-04-06T12:01:39.885Z,22208.00
2024-04-06T12:02:44.908Z,25728.00
2024-04-06T12:03:39.885Z,27104.00
2024-04-06T12:04:39.886Z,40320.00
2024-04-06T12:05:39.840Z,35680.00
2024-04-06T12:06:39.857Z,30368.00
2024-04-06T12:07:39.830Z,47520.00
2024-04-06T12:08:39.815Z,48736.00
2024-04-06T12:09:39.794Z,43808.00
2024-04-06T12:10:39.841Z,47008.00
2024-04-06T12:11:39.783Z,68864.00
2024-04-06T12:12:39.784Z,78656.00
2024-04-06T12:13:39.757Z,79680.00
2024-04-06T12:14:39.756Z,96064.00
2024-04-06T12:15:44.774Z,97248.00
2024-04-06T12:16:39.767Z,95680.00
2024-04-06T12:17:39.749Z,91744.00
2024-04-06T12:18:39.736Z,88896.00
2024-04-06T12:19:39.713Z,88064.00
2024-04-06T12:20:39.684Z,89984.00
2024-04-06T12:21:39.743Z,93280.00
2024-04-06T12:22:39.677Z,91808.00
2024-04-06T12:23:39.670Z,87328.00
2024-04-06T12:24:39.641Z,85952.00
2024-04-06T12:25:39.691Z,86048.00
2024-04-06T12:26:39.635Z,83520.00
2024-04-06T12:27:39.622Z,83584.00
2024-04-06T12:28:44.683Z,83584.00
2024-04-06T12:29:39.594Z,83584.00
2024-04-06T12:30:39.576Z,85632.00
2024-04-06T12:31:39.566Z,86560.00
2024-04-06T12:32:39.570Z,82464.00
2024-04-06T12:33:39.556Z,80416.00
2024-04-06T12:34:39.553Z,83424.00
2024-04-06T12:35:39.522Z,85824.00
2024-04-06T12:36:39.510Z,83872.00
2024-04-06T12:37:39.513Z,84288.00
2024-04-06T12:38:39.501Z,85632.00
2024-04-06T12:39:44.512Z,84768.00
2024-04-06T12:40:39.553Z,80032.00
2024-04-06T12:41:39.463Z,75520.00
2024-04-06T12:42:39.521Z,75072.00
2024-04-06T12:43:39.443Z,74848.00
2024-04-06T12:44:39.450Z,75104.00
2024-04-06T12:45:39.425Z,76096.00
2024-04-06T12:46:39.464Z,74752.00
2024-04-06T12:47:39.400Z,74848.00
2024-04-06T12:48:39.407Z,72960.00
2024-04-06T12:49:39.402Z,72864.00
2024-04-06T12:50:44.413Z,70368.00
2024-04-06T12:51:39.369Z,69696.00
2024-04-06T12:52:39.402Z,69440.00
2024-04-06T12:53:39.361Z,65216.00
2024-04-06T12:54:39.346Z,64608.00
2024-04-06T12:55:39.326Z,58944.00
2024-04-06T12:56:39.316Z,30080.00
2024-04-06T12:57:39.305Z,5908.00
2024-04-06T12:58:39.308Z,5132.00
2024-04-06T12:59:39.344Z,4884.00
2024-04-06T13:00:39.281Z,4712.00
2024-04-06T13:01:44.281Z,4624.00
2024-04-06T13:02:39.249Z,4532.00
2024-04-06T13:03:46.068Z,4464.00
2024-04-06T13:04:39.253Z,4396.00
2024-04-06T13:05:39.232Z,4312.00
2024-04-06T13:06:39.234Z,4300.00
2024-04-06T13:07:39.211Z,4260.00
2024-04-06T13:08:39.212Z,4232.00
2024-04-06T13:09:39.194Z,4180.00
2024-04-06T13:10:39.167Z,4172.00
2024-04-06T13:11:39.172Z,4124.00
2024-04-06T13:12:44.174Z,4128.00
2024-04-06T13:13:39.153Z,4112.00
2024-04-06T13:14:39.223Z,4084.00
2024-04-06T13:15:39.146Z,4080.00
2024-04-06T13:16:39.101Z,4044.00
2024-04-06T13:17:39.107Z,4004.00
2024-04-06T13:18:39.084Z,3960.00
2024-04-06T13:19:39.067Z,3924.00
2024-04-06T13:20:39.058Z,3912.00
2024-04-06T13:21:39.042Z,3924.00
2024-04-06T13:22:39.044Z,3948.00
2024-04-06T13:23:39.047Z,3944.00
2024-04-06T13:24:39.010Z,3956.00
2024-04-06T13:25:44.025Z,3984.00
2024-04-06T13:26:39.029Z,4000.00
2024-04-06T13:27:39.001Z,4008.00
2024-04-06T13:28:39.034Z,3972.00
2024-04-06T13:29:39.008Z,3984.00
2024-04-06T13:30:38.957Z,3968.00
2024-04-06T13:31:38.943Z,3936.00
2024-04-06T13:32:38.926Z,3888.00
2024-04-06T13:33:38.917Z,3900.00
2024-04-06T13:34:38.931Z,3904.00
2024-04-06T13:35:38.934Z,3872.00
2024-04-06T13:36:38.891Z,3876.00
2024-04-06T13:37:38.880Z,3876.00
2024-04-06T13:38:43.889Z,3904.00
2024-04-06T13:39:38.873Z,3928.00
2024-04-06T13:40:38.864Z,3912.00
2024-04-06T13:41:38.854Z,3872.00
2024-04-06T13:42:38.814Z,3896.00
2024-04-06T13:43:38.806Z,3856.00
2024-04-06T13:44:38.798Z,3852.00
2024-04-06T13:45:38.785Z,3812.00
2024-04-06T13:46:38.796Z,3812.00
2024-04-06T13:47:38.821Z,3828.00
2024-04-06T13:48:38.753Z,3816.00
2024-04-06T13:49:38.750Z,3808.00
2024-04-06T13:50:38.729Z,3796.00
2024-04-06T13:51:43.756Z,3796.00
2024-04-06T13:52:38.764Z,3712.00
2024-04-06T13:53:38.732Z,3780.00
2024-04-06T13:54:38.775Z,3768.00
2024-04-06T13:55:38.683Z,3804.00
2024-04-06T13:56:38.663Z,3860.00
2024-04-06T13:57:38.656Z,3856.00
2024-04-06T13:58:38.644Z,3840.00
2024-04-06T13:59:38.673Z,3836.00
2024-04-06T14:00:38.643Z,3816.00
2024-04-06T14:01:38.612Z,3808.00
2024-04-06T14:02:38.611Z,3780.00
2024-04-06T14:03:38.590Z,3760.00
2024-04-06T14:04:43.627Z,3768.00
2024-04-06T14:05:38.596Z,3784.00
2024-04-06T14:06:38.564Z,3788.00
2024-04-06T14:07:38.550Z,3784.00
2024-04-06T14:08:38.534Z,3804.00
2024-04-06T14:09:38.524Z,3792.00
2024-04-06T14:10:38.533Z,3748.00
2024-04-06T14:11:38.512Z,3720.00
2024-04-06T14:12:38.491Z,3708.00
2024-04-06T14:13:38.484Z,3708.00
2024-04-06T14:14:38.468Z,3672.00
2024-04-06T14:15:43.497Z,3628.00
2024-04-06T14:16:38.464Z,3592.00
2024-04-06T14:17:38.457Z,3568.00
2024-04-06T14:18:38.446Z,3552.00
2024-04-06T14:19:38.421Z,3536.00
2024-04-06T14:20:38.403Z,3520.00
2024-04-06T14:21:38.390Z,3496.00
2024-04-06T14:22:38.381Z,3484.00
2024-04-06T14:23:38.414Z,3460.00
2024-04-06T14:24:38.376Z,3456.00
2024-04-06T14:25:38.351Z,3456.00
2024-04-06T14:26:43.358Z,3444.00
2024-04-06T14:27:38.333Z,3424.00
2024-04-06T14:28:38.347Z,3436.00
2024-04-06T14:29:38.329Z,3400.00
2024-04-06T14:30:38.295Z,3356.00
2024-04-06T14:31:38.288Z,3348.00
2024-04-06T14:32:38.290Z,3364.00
2024-04-06T14:33:38.265Z,3384.00
2024-04-06T14:34:38.267Z,3384.00
2024-04-06T14:35:38.277Z,3408.00
2024-04-06T14:36:38.243Z,3420.00
2024-04-06T14:37:43.254Z,3416.00
2024-04-06T14:38:38.230Z,3444.00
2024-04-06T14:39:38.194Z,3476.00
2024-04-06T14:40:38.189Z,3516.00
2024-04-06T14:41:38.213Z,3520.00
2024-04-06T14:42:38.164Z,3492.00
2024-04-06T14:43:38.164Z,3512.00
2024-04-06T14:44:38.143Z,3504.00
2024-04-06T14:45:38.132Z,3508.00
2024-04-06T14:46:38.118Z,3468.00
2024-04-06T14:47:38.148Z,3448.00
2024-04-06T14:48:43.134Z,3416.00
2024-04-06T14:49:38.089Z,3356.00
2024-04-06T14:50:38.093Z,3300.00
2024-04-06T14:51:38.085Z,3232.00
2024-04-06T14:52:38.070Z,3172.00
2024-04-06T14:53:38.078Z,3088.00
2024-04-06T14:54:38.031Z,3064.00
2024-04-06T14:55:38.023Z,3044.00
2024-04-06T14:56:38.014Z,3044.00
2024-04-06T14:57:38.082Z,3048.00
2024-04-06T14:58:38.010Z,3048.00
2024-04-06T14:59:43.031Z,3056.00
2024-04-06T15:00:38.073Z,3072.00
2024-04-06T15:01:37.988Z,3092.00
2024-04-06T15:02:38.017Z,3100.00
2024-04-06T15:03:38.116Z,3140.00
2024-04-06T15:04:37.970Z,3164.00
2024-04-06T15:05:38.042Z,3188.00
2024-04-06T15:06:38.079Z,3212.00
2024-04-06T15:07:38.011Z,3228.00
2024-04-06T15:08:37.883Z,3232.00
2024-04-06T15:09:37.878Z,3252.00
2024-04-06T15:10:42.889Z,3272.00
2024-04-06T15:11:37.884Z,3304.00
2024-04-06T15:12:37.844Z,3312.00
2024-04-06T15:13:37.844Z,3324.00
2024-04-06T15:14:37.858Z,3332.00
2024-04-06T15:15:37.809Z,3372.00
2024-04-06T15:16:37.817Z,3380.00
2024-04-06T15:17:37.806Z,3368.00
2024-04-06T15:18:37.853Z,3364.00
2024-04-06T15:19:37.768Z,3360.00
2024-04-06T15:20:37.769Z,3360.00
2024-04-06T15:21:42.770Z,3352.00
2024-04-06T15:22:37.800Z,3352.00
2024-04-06T15:23:37.735Z,3368.00
2024-04-06T15:24:37.724Z,3380.00
2024-04-06T15:25:37.710Z,3404.00
2024-04-06T15:26:37.702Z,3408.00
2024-04-06T15:27:37.683Z,3384.00
2024-04-06T15:28:37.728Z,3372.00
2024-04-06T15:29:37.699Z,3404.00
2024-04-06T15:30:37.643Z,3420.00
2024-04-06T15:31:37.651Z,3432.00
2024-04-06T15:35:04.642Z,3424.00
2024-04-06T15:35:31.243Z,3480.00
2024-04-06T15:36:31.238Z,3364.00
2024-04-06T15:37:31.248Z,3464.00
2024-04-06T15:38:31.207Z,3428.00
2024-04-06T15:39:31.212Z,3408.00
2024-04-06T15:40:31.215Z,3388.00
2024-04-06T15:41:31.169Z,3356.00
2024-04-06T15:42:31.164Z,3308.00
2024-04-06T15:43:31.159Z,3240.00
2024-04-06T15:44:31.179Z,3192.00
2024-04-06T15:45:36.166Z,3176.00
2024-04-06T15:46:31.250Z,3168.00
2024-04-06T15:47:31.221Z,3172.00
2024-04-06T15:48:31.107Z,3176.00
2024-04-06T15:49:31.116Z,3160.00
2024-04-06T15:50:31.101Z,3148.00
2024-04-06T15:51:31.072Z,3152.00
2024-04-06T15:52:31.094Z,3160.00
2024-04-06T15:53:31.070Z,3140.00
2024-04-06T15:54:31.042Z,3148.00
2024-04-06T15:55:31.076Z,3136.00
2024-04-06T15:56:31.005Z,3100.00
2024-04-06T15:57:31.014Z,3016.00
2024-04-06T15:58:36.041Z,2952.00
2024-04-06T15:59:30.989Z,2896.00
2024-04-06T16:00:31.069Z,2812.00
2024-04-06T16:01:31.014Z,2736.00
2024-04-06T16:02:30.951Z,2656.00
2024-04-06T16:03:30.969Z,2584.00
2024-04-06T16:04:30.998Z,2516.00
2024-04-06T16:05:30.903Z,2472.00
2024-04-06T16:06:30.922Z,2456.00
2024-04-06T16:07:30.990Z,2436.00
2024-04-06T16:08:30.868Z,2388.00
2024-04-06T16:09:30.886Z,2352.00
2024-04-06T16:10:30.918Z,2324.00
2024-04-06T16:11:35.896Z,2308.00
2024-04-06T16:12:30.848Z,2304.00
2024-04-06T16:13:30.885Z,2308.00
2024-04-06T16:14:30.805Z,2312.00
2024-04-06T16:15:30.794Z,2332.00
2024-04-06T16:16:30.806Z,2396.00
2024-04-06T16:17:30.780Z,2480.00
2024-04-06T16:18:30.765Z,2592.00
2024-04-06T16:19:30.812Z,2696.00
2024-04-06T16:20:30.745Z,2744.00
2024-04-06T16:21:30.733Z,2768.00
2024-04-06T16:22:30.779Z,2816.00
2024-04-06T16:23:32.502Z,2856.00
2024-04-06T16:24:35.748Z,2848.00
2024-04-06T16:25:30.721Z,2844.00
2024-04-06T16:26:30.668Z,2824.00
2024-04-06T16:27:30.656Z,2804.00
2024-04-06T16:28:30.684Z,2796.00
2024-04-06T16:29:30.643Z,2792.00
2024-04-06T16:30:30.651Z,2820.00
2024-04-06T16:31:30.697Z,2796.00
2024-04-06T16:32:30.607Z,2804.00
2024-04-06T16:33:30.598Z,2800.00
2024-04-06T16:34:30.635Z,2840.00
2024-04-06T16:35:36.812Z,2900.00
2024-04-06T16:36:30.558Z,2888.00
2024-04-06T16:37:30.596Z,2808.00
2024-04-06T16:38:30.569Z,2728.00
2024-04-06T16:39:30.529Z,2684.00
2024-04-06T16:40:30.619Z,2644.00
2024-04-06T16:41:30.676Z,2604.00
2024-04-06T16:42:30.495Z,2568.00
2024-04-06T16:43:30.514Z,2520.00
2024-04-06T16:44:30.496Z,2464.00
2024-04-06T16:45:30.459Z,2404.00
2024-04-06T16:46:35.487Z,2364.00
2024-04-06T16:47:30.457Z,2324.00
2024-04-06T16:48:30.476Z,2276.00
2024-04-06T16:49:30.435Z,2224.00
2024-04-06T16:50:30.405Z,2148.00
2024-04-06T16:51:30.405Z,2068.00
2024-04-06T16:52:30.447Z,1976.00
2024-04-06T16:53:30.370Z,1884.00
2024-04-06T16:54:30.414Z,1808.00
2024-04-06T16:55:30.377Z,1732.00
2024-04-06T16:56:30.343Z,1668.00
2024-04-06T16:57:35.366Z,1600.00
2024-04-06T16:58:30.361Z,1540.00
2024-04-06T16:59:30.304Z,1496.00
2024-04-06T17:00:30.293Z,1456.00
2024-04-06T17:01:30.314Z,1420.00
2024-04-06T17:02:30.306Z,1392.00
2024-04-06T17:03:30.271Z,1368.00
2024-04-06T17:04:30.304Z,1340.00
2024-04-06T17:05:30.250Z,1316.00
2024-04-06T17:06:30.241Z,1300.00
2024-04-06T17:07:30.259Z,1288.00
2024-04-06T17:08:35.244Z,1268.00